CheckWX is a tool to help pilots better visualize weather data.  It is not intended as a substitute for an official pre-flight weather briefing.

18:15:26 UTC

KMHR TAF
Sacramento Mather Airport
Sacramento, California, USA
KMHR 171729Z 1718/1818 31003KT P6SM SCT014 FM172100 31006KT P6SM FEW250

Oct-17@
18:00 UTC

Oct-17 @ 18:00 UTC

Oct-17@
21:00 UTC

Oct-17 @ 21:00 UTC

KMHR 171729Z 1718/1818 31003KT P6SM SCT014
Wind
  • 310° at 3 KTS
Cloud Levels
  • Scattered at 1,400' AGL

Oct-17@
21:00 UTC

Oct-17 @ 21:00 UTC

Oct-18@
18:00 UTC

Oct-18 @ 18:00 UTC

FM172100 31006KT P6SM FEW250

From

From Standard forecast or significant change

Wind
  • 310° at 6 KTS
Cloud Levels
  • Few at 25,000' AGL